Terminal Aerodrome Forecast
Issued by NWS

Current Version | Previous Version | Graphics & Text | Print | Product List | Glossary On
Versions: 1 2 3 4 5 6 7 8 9 10 11 12 13
000
FTUS41 KPBZ 180520
TAFMGW
TAF
KMGW 180520Z 1806/1906 25004KT P6SM OVC015
     FM181100 23008KT P6SM SCT015
     FM181500 22010G19KT P6SM SKC
     FM182200 22008KT P6SM SKC=

USA.gov is the U.S. government's official web portal to all federal, state and local government web resources and services.